Time;durP1;ratioP1;P1;durP2;ratioP2;P2;SDS_P1;SDS_P2;PMS_P1;PMS_P2;Temp;Humidity;BMP_temperature;BMP_pressure;BME280_temperature;BME280_humidity;BME280_pressure;Samples;Min_cycle;Max_cycle;Signal;HPM_P1;HPM_P2
2023/05/25 00:00:26;;;;;;;9.33;5.40;;;10.30;99.90;;;;;;5007273;28;20483;-52
2023/05/25 00:02:53;;;;;;;13.70;6.03;;;10.40;99.90;;;;;;5009726;28;20460;-53
2023/05/25 00:05:20;;;;;;;13.80;6.53;;;10.40;99.90;;;;;;5009696;28;20946;-52
2023/05/25 00:07:47;;;;;;;12.17;6.83;;;10.40;99.90;;;;;;5011269;28;20461;-52
2023/05/25 00:10:13;;;;;;;12.23;5.80;;;10.50;99.90;;;;;;5011594;28;20484;-52
2023/05/25 00:12:40;;;;;;;14.43;6.00;;;10.50;99.90;;;;;;5012015;28;20937;-52
2023/05/25 00:15:09;;;;;;;13.77;6.60;;;10.50;99.90;;;;;;5011894;28;20814;-50
2023/05/25 00:17:36;;;;;;;13.00;6.30;;;10.50;99.90;;;;;;5011032;28;20521;-53
2023/05/25 00:20:08;;;;;;;16.07;6.80;;;10.50;99.90;;;;;;5012042;28;20519;-53
2023/05/25 00:22:35;;;;;;;9.53;5.23;;;10.50;99.90;;;;;;5010712;28;20517;-53
2023/05/25 00:25:01;;;;;;;9.93;5.93;;;10.50;99.90;;;;;;5011063;28;20513;-51
2023/05/25 00:27:28;;;;;;;17.03;6.00;;;10.50;99.90;;;;;;5012742;28;20819;-50
2023/05/25 00:29:54;;;;;;;9.13;4.83;;;10.50;99.90;;;;;;5013405;28;20487;-53
2023/05/25 00:32:22;;;;;;;8.70;5.33;;;10.40;99.90;;;;;;5010517;28;20480;-54
2023/05/25 00:34:49;;;;;;;10.70;5.47;;;10.40;99.90;;;;;;5010864;28;20946;-53
2023/05/25 00:37:16;;;;;;;11.60;5.43;;;10.40;99.90;;;;;;5010064;28;20459;-51
2023/05/25 00:39:42;;;;;;;11.23;5.63;;;10.30;99.90;;;;;;5008703;28;20483;-52
2023/05/25 00:42:09;;;;;;;11.20;5.77;;;10.30;99.90;;;;;;5014827;28;20478;-52
2023/05/25 00:44:36;;;;;;;10.67;5.00;;;10.30;99.90;;;;;;5011308;28;20456;-51
2023/05/25 00:47:03;;;;;;;8.47;5.10;;;10.20;99.90;;;;;;5010106;28;20566;-52
2023/05/25 00:49:32;;;;;;;10.40;5.57;;;10.10;99.90;;;;;;5010749;28;20487;-51
2023/05/25 00:51:59;;;;;;;7.17;4.67;;;10.00;99.90;;;;;;5009788;28;20475;-53
2023/05/25 00:54:26;;;;;;;12.40;5.00;;;9.90;99.90;;;;;;5009280;28;20475;-53
2023/05/25 00:57:02;;;;;;;7.50;4.80;;;9.90;99.90;;;;;;5010771;28;20988;-53
2023/05/25 00:59:34;;;;;;;11.80;6.37;;;9.80;99.90;;;;;;5009662;28;20483;-53
2023/05/25 01:02:04;;;;;;;11.23;5.03;;;9.80;99.90;;;;;;5006044;28;20532;-52
2023/05/25 01:04:33;;;;;;;6.17;4.47;;;9.70;99.90;;;;;;5009472;28;20465;-52
2023/05/25 01:07:02;;;;;;;10.70;5.63;;;9.60;99.90;;;;;;5009272;28;20468;-52
2023/05/25 01:09:33;;;;;;;12.00;6.23;;;9.60;99.90;;;;;;5010664;28;20487;-51
2023/05/25 01:12:01;;;;;;;12.00;4.67;;;9.60;99.90;;;;;;5001527;28;22099;-51
2023/05/25 01:14:28;;;;;;;9.10;4.93;;;9.50;99.90;;;;;;5007615;28;20471;-52
2023/05/25 01:16:57;;;;;;;7.40;5.30;;;9.50;99.90;;;;;;5009299;28;20459;-52
2023/05/25 01:19:24;;;;;;;8.87;4.90;;;9.40;99.90;;;;;;5008953;28;20472;-51
2023/05/25 01:22:00;;;;;;;17.07;5.00;;;9.40;99.90;;;;;;5008585;28;20881;-53
2023/05/25 01:24:34;;;;;;;8.87;5.20;;;9.40;99.90;;;;;;5010302;28;20467;-51
2023/05/25 01:27:07;;;;;;;11.00;5.67;;;9.30;99.90;;;;;;5007436;28;20522;-51
2023/05/25 01:29:35;;;;;;;6.50;4.93;;;9.30;99.90;;;;;;5010352;28;21079;-52
2023/05/25 01:32:04;;;;;;;7.70;4.93;;;9.20;99.90;;;;;;5015824;28;21014;-52
2023/05/25 01:34:31;;;;;;;7.90;4.33;;;9.10;99.80;;;;;;5013818;28;20463;-53
2023/05/25 01:37:00;;;;;;;14.17;5.60;;;9.10;99.90;;;;;;5014089;28;20471;-51
2023/05/25 01:39:26;;;;;;;14.57;5.50;;;9.00;99.90;;;;;;5014284;28;20468;-53
2023/05/25 01:41:53;;;;;;;8.87;5.60;;;8.90;99.90;;;;;;5003763;28;20448;-52
2023/05/25 01:44:20;;;;;;;7.37;5.00;;;8.90;98.90;;;;;;5013150;28;21044;-53
2023/05/25 01:46:50;;;;;;;13.77;5.83;;;8.80;93.30;;;;;;5013556;28;20838;-53
2023/05/25 01:49:26;;;;;;;10.40;5.13;;;8.80;89.80;;;;;;5015264;28;20511;-53
2023/05/25 01:52:00;;;;;;;8.87;4.70;;;8.80;93.20;;;;;;5014741;28;20487;-53
2023/05/25 01:54:35;;;;;;;6.23;4.90;;;8.80;91.60;;;;;;5013603;28;20491;-52
2023/05/25 01:57:06;;;;;;;8.70;4.90;;;8.80;89.80;;;;;;5013101;28;20985;-51
2023/05/25 01:59:34;;;;;;;6.87;4.90;;;8.80;91.40;;;;;;5005875;28;20508;-50
2023/05/25 02:02:01;;;;;;;6.30;4.83;;;8.70;94.90;;;;;;5011698;28;20463;-53
2023/05/25 02:04:29;;;;;;;5.60;5.00;;;8.70;92.50;;;;;;5012963;28;20495;-53
2023/05/25 02:06:56;;;;;;;8.47;4.90;;;8.70;97.40;;;;;;5010862;28;20534;-53
2023/05/25 02:09:23;;;;;;;8.77;5.43;;;8.60;99.40;;;;;;5011121;28;20507;-53
2023/05/25 02:11:50;;;;;;;11.87;4.43;;;8.70;95.20;;;;;;5012420;28;21017;-53
2023/05/25 02:14:17;;;;;;;7.77;4.43;;;8.60;99.80;;;;;;5011694;28;20534;-52
2023/05/25 02:16:45;;;;;;;9.47;4.80;;;8.50;95.40;;;;;;5013180;28;20608;-51
2023/05/25 02:19:13;;;;;;;8.83;4.63;;;8.50;99.90;;;;;;5013868;28;20523;-53
2023/05/25 02:21:40;;;;;;;6.80;4.93;;;8.40;99.80;;;;;;5012669;28;20837;-51
2023/05/25 02:24:08;;;;;;;6.90;4.73;;;8.30;98.40;;;;;;5013686;28;20499;-52
2023/05/25 02:26:35;;;;;;;8.20;5.20;;;8.30;92.10;;;;;;5012553;28;20468;-53
2023/05/25 02:29:03;;;;;;;16.70;4.73;;;8.30;94.90;;;;;;5013558;28;20500;-52
2023/05/25 02:31:29;;;;;;;8.60;4.90;;;8.40;88.50;;;;;;5011731;28;20985;-52
2023/05/25 02:33:56;;;;;;;8.70;5.27;;;8.30;88.40;;;;;;5015478;28;20463;-51
2023/05/25 02:36:23;;;;;;;7.57;5.10;;;8.30;92.60;;;;;;5014555;28;20468;-52
2023/05/25 02:38:50;;;;;;;8.43;5.13;;;8.20;94.40;;;;;;5012382;28;20452;-51
2023/05/25 02:41:18;;;;;;;6.37;4.67;;;8.20;91.50;;;;;;5014248;28;20496;-58
2023/05/25 02:43:45;;;;;;;11.50;5.70;;;8.10;91.80;;;;;;5012225;28;20464;-53
2023/05/25 02:46:13;;;;;;;8.20;4.83;;;8.10;90.50;;;;;;5013627;28;20487;-52
2023/05/25 02:48:39;;;;;;;7.43;4.70;;;8.00;89.10;;;;;;5013149;28;20499;-51
2023/05/25 02:51:06;;;;;;;7.00;4.17;;;8.00;82.70;;;;;;5016027;28;21023;-52
2023/05/25 02:53:33;;;;;;;4.93;4.20;;;8.00;82.30;;;;;;5015206;28;20498;-51
2023/05/25 02:56:01;;;;;;;12.43;5.40;;;8.00;88.00;;;;;;5012323;28;20558;-52
2023/05/25 02:58:27;;;;;;;7.53;5.00;;;8.00;90.30;;;;;;5014132;28;20463;-52
2023/05/25 03:00:54;;;;;;;7.10;4.53;;;8.00;90.40;;;;;;5012786;28;20479;-52
2023/05/25 03:03:22;;;;;;;8.73;4.83;;;8.00;92.10;;;;;;5013117;28;20455;-53
2023/05/25 03:05:49;;;;;;;8.43;5.07;;;8.00;86.30;;;;;;5010983;28;20476;-51
2023/05/25 03:08:15;;;;;;;6.00;4.97;;;8.00;84.30;;;;;;5012614;28;20547;-51
2023/05/25 03:10:42;;;;;;;10.67;5.37;;;7.90;91.30;;;;;;5011225;28;20476;-53
2023/05/25 03:13:09;;;;;;;7.40;4.47;;;8.00;90.20;;;;;;5007866;28;20519;-54
2023/05/25 03:15:35;;;;;;;10.93;5.80;;;7.90;91.00;;;;;;5009681;28;20975;-53
2023/05/25 03:18:02;;;;;;;8.50;5.97;;;8.00;85.70;;;;;;5010913;28;20456;-52
2023/05/25 03:20:31;;;;;;;6.67;4.63;;;8.00;83.50;;;;;;5011503;28;20872;-53
2023/05/25 03:22:58;;;;;;;8.60;5.53;;;8.00;89.40;;;;;;5009371;28;20551;-53
2023/05/25 03:25:25;;;;;;;8.87;5.23;;;8.00;92.60;;;;;;5015794;28;20455;-52
2023/05/25 03:27:52;;;;;;;7.10;5.27;;;7.90;90.90;;;;;;5010869;28;20503;-51
2023/05/25 03:30:18;;;;;;;11.40;4.67;;;7.90;89.80;;;;;;5013832;28;20855;-51
2023/05/25 03:32:45;;;;;;;6.67;4.67;;;7.80;93.00;;;;;;5012522;28;20494;-53
2023/05/25 03:35:11;;;;;;;6.27;4.73;;;7.90;85.20;;;;;;5011903;28;20464;-52
2023/05/25 03:37:39;;;;;;;7.03;5.27;;;7.90;87.40;;;;;;5012938;28;20502;-52
2023/05/25 03:40:08;;;;;;;9.40;5.40;;;7.90;91.70;;;;;;5011116;28;20510;-53
2023/05/25 03:42:35;;;;;;;9.80;5.63;;;7.80;92.10;;;;;;5011954;28;20461;-51
2023/05/25 03:45:01;;;;;;;8.90;5.10;;;7.80;91.80;;;;;;5007144;28;20569;-52
2023/05/25 03:47:28;;;;;;;8.00;5.20;;;7.90;92.60;;;;;;5010752;28;20544;-52
2023/05/25 03:49:54;;;;;;;7.10;4.77;;;7.80;92.20;;;;;;5009485;28;20569;-52
2023/05/25 03:52:21;;;;;;;6.50;4.90;;;7.80;89.80;;;;;;5011519;28;20483;-51
2023/05/25 03:54:49;;;;;;;7.27;5.27;;;7.90;86.20;;;;;;5010378;28;20965;-52
2023/05/25 03:57:15;;;;;;;18.17;6.13;;;7.90;85.60;;;;;;5015570;28;20546;-52
2023/05/25 03:59:42;;;;;;;9.80;5.70;;;7.90;85.90;;;;;;5006900;28;20545;-53
2023/05/25 04:02:08;;;;;;;8.87;5.40;;;8.00;80.80;;;;;;5010422;28;20492;-51
2023/05/25 04:04:37;;;;;;;11.87;6.67;;;8.00;78.00;;;;;;5010933;28;20500;-53
2023/05/25 04:07:03;;;;;;;10.10;6.33;;;8.10;73.60;;;;;;5015432;28;20467;-51
2023/05/25 04:09:30;;;;;;;9.07;5.30;;;8.20;75.40;;;;;;5010558;28;20515;-53
2023/05/25 04:11:58;;;;;;;7.93;5.90;;;8.20;79.50;;;;;;5011608;28;20527;-51
2023/05/25 04:14:25;;;;;;;8.73;5.50;;;8.20;72.40;;;;;;5010118;28;20496;-51
2023/05/25 04:16:52;;;;;;;12.20;6.23;;;8.30;71.30;;;;;;5011595;28;20495;-51
2023/05/25 04:19:18;;;;;;;21.20;6.77;;;8.40;71.10;;;;;;5007863;28;20484;-51
2023/05/25 04:21:45;;;;;;;23.13;6.30;;;8.50;71.30;;;;;;5005035;28;20504;-52
2023/05/25 04:24:11;;;;;;;9.20;6.40;;;8.60;72.70;;;;;;5005392;28;20943;-52
2023/05/25 04:26:39;;;;;;;9.90;6.80;;;8.60;73.70;;;;;;5008080;28;20574;-52
2023/05/25 04:29:06;;;;;;;9.70;6.40;;;8.70;70.70;;;;;;5007089;28;20653;-51
2023/05/25 04:31:34;;;;;;;10.27;5.57;;;8.80;70.90;;;;;;5008436;28;21025;-51
2023/05/25 04:34:01;;;;;;;13.97;6.20;;;8.80;70.60;;;;;;5008189;28;20884;-51
2023/05/25 04:36:28;;;;;;;20.50;6.90;;;8.90;70.70;;;;;;5007225;28;20468;-50
2023/05/25 04:38:55;;;;;;;12.23;7.60;;;9.00;71.10;;;;;;5008809;28;20488;-51
2023/05/25 04:41:21;;;;;;;11.07;6.97;;;9.10;73.00;;;;;;5003264;28;20495;-53
2023/05/25 04:43:49;;;;;;;14.17;7.40;;;9.10;74.40;;;;;;5007509;28;20518;-50
2023/05/25 04:46:17;;;;;;;18.40;8.00;;;9.20;73.80;;;;;;5002020;28;20953;-52
2023/05/25 04:48:44;;;;;;;16.53;7.20;;;9.30;71.90;;;;;;5006624;28;20459;-52
2023/05/25 04:51:11;;;;;;;13.23;7.40;;;9.50;70.60;;;;;;5006184;28;20502;-51
2023/05/25 04:53:37;;;;;;;16.53;8.10;;;9.60;68.80;;;;;;5008933;28;20489;-50
2023/05/25 04:56:04;;;;;;;17.80;7.37;;;9.70;66.30;;;;;;5008587;28;20479;-50
2023/05/25 04:58:32;;;;;;;14.33;8.10;;;9.70;66.20;;;;;;5006882;28;20471;-50
2023/05/25 05:00:58;;;;;;;16.80;9.30;;;9.80;66.80;;;;;;5009447;28;20479;-49
2023/05/25 05:03:26;;;;;;;20.07;9.00;;;9.90;66.10;;;;;;5010628;28;20492;-50
2023/05/25 05:05:53;;;;;;;18.33;8.57;;;10.00;66.10;;;;;;5012634;28;20486;-51
2023/05/25 05:08:19;;;;;;;20.73;8.10;;;10.10;65.50;;;;;;5013795;28;20977;-51
2023/05/25 05:10:46;;;;;;;23.70;9.20;;;10.10;65.80;;;;;;5013625;28;20882;-51
2023/05/25 05:13:12;;;;;;;16.07;8.87;;;10.20;66.50;;;;;;5011682;28;21044;-51
2023/05/25 05:15:39;;;;;;;23.33;9.50;;;10.30;67.30;;;;;;5011712;28;20464;-52
2023/05/25 05:18:07;;;;;;;27.23;9.57;;;10.40;68.40;;;;;;5012674;28;21044;-50
2023/05/25 05:20:35;;;;;;;23.83;9.00;;;10.50;68.40;;;;;;5010965;28;20484;-51
2023/05/25 05:23:02;;;;;;;26.53;8.97;;;10.70;73.60;;;;;;5011535;28;20630;-51
2023/05/25 05:25:28;;;;;;;17.83;8.10;;;10.80;78.40;;;;;;5008825;28;21044;-50
2023/05/25 05:27:55;;;;;;;19.00;8.83;;;10.90;83.00;;;;;;5014844;28;20831;-50
2023/05/25 05:30:22;;;;;;;29.20;8.93;;;11.00;88.80;;;;;;5012350;28;20515;-50
2023/05/25 05:32:48;;;;;;;16.83;8.47;;;11.00;90.50;;;;;;5006803;28;20518;-51
2023/05/25 05:35:15;;;;;;;23.73;8.17;;;11.10;90.50;;;;;;5011879;28;20606;-50
2023/05/25 05:37:43;;;;;;;25.23;8.87;;;11.20;88.30;;;;;;5012516;28;20470;-51
2023/05/25 05:40:10;;;;;;;18.33;9.17;;;11.40;89.80;;;;;;5010559;28;20479;-50
2023/05/25 05:42:37;;;;;;;17.20;7.90;;;11.50;89.80;;;;;;5012284;28;21024;-50
2023/05/25 05:45:04;;;;;;;20.07;10.47;;;11.60;99.20;;;;;;5011491;28;20526;-50
2023/05/25 05:47:31;;;;;;;25.50;8.50;;;11.60;99.90;;;;;;5014094;28;20542;-50
2023/05/25 05:49:57;;;;;;;27.53;8.50;;;11.70;99.40;;;;;;5010227;28;20967;-51
2023/05/25 05:52:24;;;;;;;18.83;8.47;;;11.80;99.90;;;;;;5008176;28;20487;-51
2023/05/25 05:54:52;;;;;;;22.30;9.37;;;11.80;99.90;;;;;;5011342;28;21009;-50
2023/05/25 05:57:19;;;;;;;25.27;8.40;;;11.90;99.90;;;;;;5018137;28;20487;-51
2023/05/25 05:59:45;;;;;;;19.10;8.50;;;12.00;99.90;;;;;;5013681;28;20487;-50
2023/05/25 06:02:12;;;;;;;31.93;9.80;;;12.00;99.90;;;;;;5013619;28;20452;-51
2023/05/25 06:04:38;;;;;;;25.93;9.57;;;12.10;99.90;;;;;;5012520;28;20518;-50
2023/05/25 06:07:05;;;;;;;23.53;9.77;;;12.20;99.90;;;;;;5010821;28;20522;-50
2023/05/25 06:09:32;;;;;;;24.77;8.50;;;12.30;99.90;;;;;;5003807;28;21136;-51
2023/05/25 06:12:00;;;;;;;15.70;8.00;;;12.40;99.90;;;;;;5010283;28;20488;-51
2023/05/25 06:14:26;;;;;;;25.37;8.60;;;12.50;99.90;;;;;;5007925;28;20555;-51
2023/05/25 06:16:53;;;;;;;23.83;9.60;;;12.50;99.90;;;;;;5011457;28;20496;-50
2023/05/25 06:19:20;;;;;;;21.63;7.60;;;12.60;99.90;;;;;;5013830;28;20541;-50
2023/05/25 06:21:46;;;;;;;20.63;7.83;;;12.80;99.90;;;;;;5005577;28;20497;-50
2023/05/25 06:24:14;;;;;;;17.87;7.53;;;12.90;99.90;;;;;;5011016;28;20453;-53
2023/05/25 06:26:41;;;;;;;22.23;8.07;;;12.90;99.90;;;;;;5005537;28;20472;-55
2023/05/25 06:29:09;;;;;;;19.50;8.50;;;13.10;99.90;;;;;;5013901;28;20545;-54
2023/05/25 06:31:35;;;;;;;15.60;7.97;;;13.20;99.90;;;;;;5005342;28;20959;-52
2023/05/25 06:34:02;;;;;;;17.60;7.80;;;13.30;99.90;;;;;;5012648;28;20487;-53
2023/05/25 06:36:29;;;;;;;22.57;8.23;;;13.30;99.90;;;;;;5013972;28;20476;-54
2023/05/25 06:38:56;;;;;;;19.03;7.80;;;13.50;99.90;;;;;;5007170;28;20460;-54
2023/05/25 06:41:22;;;;;;;26.43;8.17;;;13.60;99.90;;;;;;5011823;28;20499;-53
2023/05/25 06:43:49;;;;;;;14.97;7.10;;;13.60;99.90;;;;;;5009780;28;20464;-54
2023/05/25 06:46:17;;;;;;;25.33;8.40;;;13.70;99.90;;;;;;5010866;28;20460;-55
2023/05/25 06:48:44;;;;;;;23.80;9.27;;;13.80;99.90;;;;;;5004698;28;20959;-53
2023/05/25 06:51:11;;;;;;;21.63;7.23;;;13.90;99.90;;;;;;5011761;28;20464;-54
2023/05/25 06:53:38;;;;;;;23.37;9.40;;;14.00;99.90;;;;;;4999104;28;20534;-55
2023/05/25 06:56:05;;;;;;;30.70;9.13;;;14.10;99.90;;;;;;5010732;28;20495;-55
2023/05/25 06:58:32;;;;;;;25.60;8.80;;;14.20;99.90;;;;;;5004882;28;20848;-55
2023/05/25 07:00:59;;;;;;;35.50;10.00;;;14.30;99.90;;;;;;5012299;28;20472;-53
2023/05/25 07:03:27;;;;;;;20.10;8.90;;;14.40;99.90;;;;;;5011834;28;20463;-53
2023/05/25 07:05:54;;;;;;;20.30;8.43;;;14.50;99.90;;;;;;5011175;28;20910;-52
2023/05/25 07:08:21;;;;;;;20.17;7.50;;;14.50;99.90;;;;;;5010667;28;21015;-53
2023/05/25 07:10:47;;;;;;;25.70;8.77;;;14.60;99.90;;;;;;5012776;28;20499;-53
2023/05/25 07:13:14;;;;;;;21.57;7.83;;;14.70;99.90;;;;;;5006292;28;20516;-53
2023/05/25 07:15:40;;;;;;;17.90;8.33;;;14.80;99.90;;;;;;5010833;28;20492;-52
2023/05/25 07:18:11;;;;;;;22.03;7.73;;;14.90;99.90;;;;;;5005657;28;21059;-53
2023/05/25 07:20:40;;;;;;;16.60;7.20;;;15.00;99.90;;;;;;5011852;28;20479;-50
2023/05/25 07:23:08;;;;;;;21.00;7.63;;;15.00;99.90;;;;;;5005464;28;20975;-55
2023/05/25 07:25:35;;;;;;;25.07;8.30;;;15.10;99.90;;;;;;5012554;28;20448;-51
2023/05/25 07:28:02;;;;;;;16.80;7.20;;;15.10;99.90;;;;;;5007171;28;20459;-51
2023/05/25 07:30:28;;;;;;;17.73;7.60;;;15.20;99.90;;;;;;5007748;28;20548;-51
2023/05/25 07:32:55;;;;;;;22.47;7.00;;;15.20;33.80;;;;;;5007063;28;20519;-51
2023/05/25 07:35:22;;;;;;;23.00;7.13;;;15.20;42.70;;;;;;5012050;28;20447;-51
2023/05/25 07:37:57;;;;;;;19.37;6.77;;;15.30;44.30;;;;;;5013448;28;20515;-51
2023/05/25 07:40:24;;;;;;;17.50;7.60;;;15.40;20.80;;;;;;5002969;28;21082;-53
2023/05/25 07:42:50;;;;;;;22.00;7.70;;;15.50;42.50;;;;;;5007822;28;20545;-53
2023/05/25 07:45:17;;;;;;;20.77;7.20;;;15.60;39.70;;;;;;5004348;28;20487;-53
2023/05/25 07:47:44;;;;;;;18.93;6.90;;;15.70;54.90;;;;;;5003077;28;20545;-54
2023/05/25 07:50:11;;;;;;;18.60;6.40;;;15.70;55.10;;;;;;5007237;28;20569;-54
2023/05/25 07:52:38;;;;;;;16.27;7.50;;;15.80;92.70;;;;;;5009643;28;20574;-53
2023/05/25 07:55:07;;;;;;;12.17;6.07;;;15.90;99.90;;;;;;5008716;28;20466;-53
2023/05/25 07:57:34;;;;;;;22.47;7.50;;;16.00;99.90;;;;;;5007009;28;20455;-53
2023/05/25 08:00:01;;;;;;;25.37;8.23;;;16.10;99.90;;;;;;5005004;28;20527;-55
2023/05/25 08:02:27;;;;;;;18.33;7.60;;;16.20;1.40;;;;;;5004152;28;20467;-54
2023/05/25 08:04:54;;;;;;;17.13;6.20;;;16.20;99.90;;;;;;5009468;28;20484;-54
2023/05/25 08:07:23;;;;;;;16.37;5.67;;;16.30;44.40;;;;;;5009903;28;20467;-54
2023/05/25 08:09:50;;;;;;;9.60;4.33;;;16.30;72.20;;;;;;5010217;28;20483;-53
2023/05/25 08:12:18;;;;;;;12.00;5.07;;;16.40;99.90;;;;;;5008302;28;20464;-53
2023/05/25 08:14:45;;;;;;;16.77;5.50;;;16.50;99.90;;;;;;5007808;28;20519;-53
2023/05/25 08:17:11;;;;;;;17.20;5.47;;;16.60;99.90;;;;;;5006865;28;20471;-55
2023/05/25 08:19:41;;;;;;;19.43;5.80;;;16.70;99.90;;;;;;5013589;28;20999;-56
2023/05/25 08:22:08;;;;;;;15.87;5.80;;;16.80;99.90;;;;;;4998139;28;20555;-53
2023/05/25 08:24:35;;;;;;;9.67;4.60;;;16.90;99.90;;;;;;5011023;28;20535;-53
2023/05/25 08:27:02;;;;;;;10.30;4.20;;;16.80;99.90;;;;;;5006261;28;20492;-52
2023/05/25 08:29:30;;;;;;;9.63;4.37;;;17.10;99.90;;;;;;5006202;28;20492;-54
2023/05/25 08:31:57;;;;;;;10.10;3.83;;;17.00;99.90;;;;;;5008566;28;20464;-54
2023/05/25 08:34:23;;;;;;;12.50;4.93;;;17.00;99.90;;;;;;5017132;28;20480;-54
2023/05/25 08:36:51;;;;;;;14.27;5.03;;;17.20;99.90;;;;;;5009281;28;20522;-55
2023/05/25 08:39:17;;;;;;;12.13;4.97;;;17.30;99.90;;;;;;5005311;28;20480;-53
2023/05/25 08:41:44;;;;;;;10.90;4.63;;;17.40;99.90;;;;;;5005430;28;20466;-54
2023/05/25 08:44:13;;;;;;;8.30;5.10;;;17.60;99.90;;;;;;5004463;28;20456;-53
2023/05/25 08:46:41;;;;;;;12.87;5.30;;;17.50;99.90;;;;;;5008116;28;20464;-54
2023/05/25 08:49:10;;;;;;;15.50;5.83;;;17.50;99.90;;;;;;5005272;28;21095;-53
2023/05/25 08:51:40;;;;;;;11.63;5.60;;;17.60;99.90;;;;;;5002830;28;20491;-53
2023/05/25 08:54:10;;;;;;;11.47;6.77;;;17.70;1.40;;;;;;4999148;28;20516;-54
2023/05/25 08:56:41;;;;;;;14.17;7.00;;;17.90;99.90;;;;;;5010514;28;20470;-54
2023/05/25 08:59:15;;;;;;;12.33;7.03;;;18.00;99.90;;;;;;5003734;28;20827;-53
2023/05/25 09:01:46;;;;;;;12.87;7.27;;;18.10;99.90;;;;;;5011665;28;20506;-55
2023/05/25 09:04:13;;;;;;;18.40;8.47;;;18.00;99.90;;;;;;5001185;28;20485;-53
2023/05/25 09:06:41;;;;;;;10.80;6.90;;;18.10;99.90;;;;;;5000909;28;20464;-55
2023/05/25 09:09:08;;;;;;;14.57;7.33;;;18.10;99.90;;;;;;5010991;28;20649;-54
2023/05/25 09:11:35;;;;;;;16.07;7.10;;;18.00;99.90;;;;;;5010591;28;20931;-55
2023/05/25 09:14:02;;;;;;;14.03;7.23;;;18.00;99.90;;;;;;5010705;28;20569;-55
2023/05/25 09:16:31;;;;;;;15.90;8.20;;;17.80;99.90;;;;;;5010661;28;20870;-54
2023/05/25 09:18:59;;;;;;;13.03;6.53;;;17.90;99.90;;;;;;5000072;28;20463;-56
2023/05/25 09:21:26;;;;;;;13.57;6.60;;;17.90;99.90;;;;;;5003323;28;20485;-54
2023/05/25 09:23:53;;;;;;;11.07;5.70;;;18.20;99.90;;;;;;5005389;28;20446;-54
2023/05/25 09:26:19;;;;;;;10.67;6.57;;;18.40;1.40;;;;;;5016303;28;20525;-56
2023/05/25 09:28:47;;;;;;;12.77;6.40;;;18.60;99.90;;;;;;5011137;28;20487;-55
2023/05/25 09:31:14;;;;;;;10.80;5.47;;;18.20;99.90;;;;;;5011389;28;20502;-53
2023/05/25 09:33:42;;;;;;;12.50;6.60;;;18.30;99.90;;;;;;5016647;28;20479;-55
2023/05/25 09:36:13;;;;;;;21.93;6.43;;;18.10;99.90;;;;;;5010782;28;20444;-55
2023/05/25 09:38:40;;;;;;;11.70;6.00;;;18.10;1.40;;;;;;5008477;28;20977;-56
2023/05/25 09:41:07;;;;;;;12.23;6.30;;;18.20;99.90;;;;;;5011191;28;20447;-55
2023/05/25 09:43:34;;;;;;;8.97;7.13;;;18.10;99.90;;;;;;5009990;28;20491;-55
2023/05/25 09:46:00;;;;;;;12.87;6.27;;;18.00;99.90;;;;;;5009939;28;20506;-55
2023/05/25 09:48:28;;;;;;;11.70;6.50;;;18.20;99.90;;;;;;5010109;28;20518;-54
2023/05/25 09:50:55;;;;;;;13.67;7.50;;;18.70;99.90;;;;;;5013471;28;20483;-55
2023/05/25 09:53:23;;;;;;;12.60;7.23;;;18.50;99.90;;;;;;5013578;28;21013;-53
2023/05/25 09:55:51;;;;;;;13.13;6.63;;;18.70;99.90;;;;;;5013668;28;20448;-53
2023/05/25 09:58:18;;;;;;;9.50;6.70;;;19.00;99.90;;;;;;5013449;28;20472;-53
2023/05/25 10:00:45;;;;;;;20.87;7.03;;;19.20;99.90;;;;;;5009315;28;20506;-53
2023/05/25 10:03:13;;;;;;;14.77;6.50;;;18.80;99.90;;;;;;5014287;28;20455;-54
2023/05/25 10:05:40;;;;;;;18.70;5.67;;;19.10;99.90;;;;;;5012178;28;20468;-53
2023/05/25 10:08:08;;;;;;;9.77;5.93;;;19.30;99.90;;;;;;5013090;28;20536;-54
2023/05/25 10:10:37;;;;;;;17.93;6.13;;;19.80;99.90;;;;;;5010059;28;20572;-53
2023/05/25 10:13:08;;;;;;;13.00;6.77;;;19.80;99.90;;;;;;5011742;28;20519;-54
2023/05/25 10:15:37;;;;;;;16.77;7.43;;;19.90;99.90;;;;;;5010960;28;20464;-54
2023/05/25 10:18:06;;;;;;;9.90;5.40;;;20.10;99.90;;;;;;5010073;28;20488;-53
2023/05/25 10:20:33;;;;;;;11.30;5.63;;;20.20;99.90;;;;;;5012089;28;20515;-54
2023/05/25 10:23:04;;;;;;;15.23;5.37;;;20.80;99.90;;;;;;5014035;28;20451;-54
2023/05/25 10:25:34;;;;;;;13.33;6.30;;;20.40;99.90;;;;;;5012531;28;20498;-54
2023/05/25 10:28:07;;;;;;;11.83;6.30;;;20.50;99.90;;;;;;5012514;28;20547;-54
2023/05/25 10:30:36;;;;;;;15.83;6.97;;;21.10;99.90;;;;;;5023487;22;20492;-53
2023/05/25 10:33:03;;;;;;;16.03;6.13;;;21.40;99.90;;;;;;5013613;28;20482;-53
2023/05/25 10:35:30;;;;;;;14.63;6.00;;;21.30;99.90;;;;;;5012958;28;22316;-53
2023/05/25 10:37:59;;;;;;;10.53;5.30;;;21.90;99.90;;;;;;5005881;28;20480;-53
2023/05/25 10:40:26;;;;;;;12.60;6.10;;;21.80;99.90;;;;;;5009044;28;21229;-52
2023/05/25 10:42:53;;;;;;;11.80;6.30;;;21.10;99.90;;;;;;5010056;28;20553;-53
2023/05/25 10:45:22;;;;;;;14.00;6.97;;;20.60;99.90;;;;;;5008482;28;21072;-53
2023/05/25 10:47:49;;;;;;;15.00;5.40;;;20.70;99.90;;;;;;5006784;28;20490;-53
2023/05/25 10:50:21;;;;;;;16.37;5.80;;;21.30;99.90;;;;;;5004058;28;20513;-52
2023/05/25 10:52:58;;;;;;;13.87;6.00;;;21.30;99.90;;;;;;5006204;28;20486;-53
2023/05/25 10:55:30;;;;;;;14.67;5.53;;;21.50;99.90;;;;;;5002869;28;20494;-53
2023/05/25 10:58:08;;;;;;;11.93;5.30;;;22.00;99.90;;;;;;5005163;28;20463;-53
2023/05/25 11:00:37;;;;;;;10.23;5.47;;;22.60;99.90;;;;;;5006000;28;20490;-52
2023/05/25 11:03:04;;;;;;;12.90;4.87;;;21.40;99.90;;;;;;5005582;28;20522;-53
2023/05/25 11:05:37;;;;;;;14.43;5.63;;;21.40;99.90;;;;;;5006644;28;21293;-53
2023/05/25 11:08:04;;;;;;;8.57;4.80;;;21.50;99.90;;;;;;5009265;28;20547;-56
2023/05/25 11:10:53;;;;;;;9.33;5.67;;;20.80;99.90;;;;;;5005065;28;20487;-53
2023/05/25 11:13:24;;;;;;;12.37;7.07;;;20.60;99.90;;;;;;5005520;28;20460;-53
2023/05/25 11:16:19;;;;;;;12.70;6.77;;;20.30;99.90;;;;;;5012880;28;20930;-53
2023/05/25 11:18:50;;;;;;;15.43;7.10;;;20.20;99.90;;;;;;5006217;28;20969;-54
2023/05/25 11:21:22;;;;;;;17.17;6.70;;;20.10;99.90;;;;;;5010910;28;20482;-53
2023/05/25 11:23:53;;;;;;;16.10;7.33;;;20.30;99.90;;;;;;5006516;28;20455;-53
2023/05/25 11:26:21;;;;;;;16.80;7.60;;;20.30;99.90;;;;;;5011741;28;20487;-53
2023/05/25 11:28:48;;;;;;;11.63;7.33;;;20.40;99.90;;;;;;5008099;28;20486;-53
2023/05/25 11:31:16;;;;;;;11.30;7.13;;;21.00;99.90;;;;;;5010941;28;20487;-53
2023/05/25 11:33:44;;;;;;;12.00;7.27;;;20.80;99.90;;;;;;5009768;28;20876;-53
2023/05/25 11:36:14;;;;;;;10.80;7.30;;;20.70;99.90;;;;;;5007956;28;20496;-53
2023/05/25 11:38:44;;;;;;;12.67;7.60;;;21.00;99.90;;;;;;5007862;28;21000;-54
2023/05/25 11:41:17;;;;;;;16.17;7.67;;;20.30;99.90;;;;;;5007520;28;20483;-53
2023/05/25 11:43:45;;;;;;;13.40;7.83;;;20.40;99.90;;;;;;5006546;28;20460;-53
2023/05/25 11:46:13;;;;;;;12.30;7.50;;;20.60;99.90;;;;;;5006869;28;20464;-52
2023/05/25 11:48:45;;;;;;;13.70;8.03;;;20.40;99.90;;;;;;5006928;28;20499;-53
2023/05/25 11:51:12;;;;;;;11.43;8.13;;;20.70;99.90;;;;;;5007431;28;20979;-52
2023/05/25 11:53:43;;;;;;;11.50;7.67;;;21.40;99.90;;;;;;5007867;28;20463;-52
2023/05/25 11:56:11;;;;;;;14.00;7.87;;;21.50;99.90;;;;;;5008943;28;20455;-53
2023/05/25 11:58:38;;;;;;;11.07;6.90;;;21.40;99.90;;;;;;5006718;28;20566;-56
2023/05/25 12:01:15;;;;;;;14.87;7.63;;;21.50;99.90;;;;;;5004105;28;20488;-56
2023/05/25 12:03:44;;;;;;;15.23;7.67;;;21.30;99.90;;;;;;5007268;28;20493;-57
2023/05/25 12:06:23;;;;;;;13.87;7.17;;;20.90;99.90;;;;;;5003931;28;20456;-56
2023/05/25 12:08:50;;;;;;;11.33;7.00;;;21.00;99.90;;;;;;5009169;28;20466;-56
2023/05/25 12:11:17;;;;;;;13.37;6.87;;;20.60;99.90;;;;;;5004237;28;20520;-56
2023/05/25 12:13:43;;;;;;;18.63;8.60;;;21.10;99.90;;;;;;5007063;28;20495;-56
2023/05/25 12:16:10;;;;;;;17.67;7.40;;;20.00;99.90;;;;;;5005361;28;20838;-56
2023/05/25 12:18:37;;;;;;;12.17;7.03;;;20.70;99.90;;;;;;5007531;28;20460;-56
2023/05/25 12:21:07;;;;;;;15.97;6.57;;;20.60;99.90;;;;;;5011739;28;21172;-55
2023/05/25 12:23:34;;;;;;;13.27;6.23;;;20.20;99.90;;;;;;5005324;28;20464;-56
2023/05/25 12:26:09;;;;;;;10.03;6.60;;;20.50;99.90;;;;;;5009025;28;20468;-56
2023/05/25 12:28:35;;;;;;;19.27;7.63;;;20.10;99.90;;;;;;5007593;28;20499;-57
2023/05/25 12:31:20;;;;;;;20.90;7.83;;;20.60;99.90;;;;;;5011843;28;20887;-56
2023/05/25 12:33:47;;;;;;;12.13;6.80;;;21.40;99.90;;;;;;5006854;28;20463;-57
2023/05/25 12:36:15;;;;;;;17.33;7.17;;;21.40;99.90;;;;;;5009213;28;20491;-57
2023/05/25 12:38:58;;;;;;;13.27;6.70;;;21.00;99.90;;;;;;5011560;28;20526;-56
2023/05/25 12:41:25;;;;;;;9.63;6.10;;;20.00;99.90;;;;;;5010459;28;20515;-55
2023/05/25 12:43:51;;;;;;;18.10;7.13;;;20.40;99.90;;;;;;5010885;28;20470;-56
2023/05/25 12:46:24;;;;;;;13.70;6.90;;;20.10;99.90;;;;;;5001197;28;20496;-56